Forside
METAR-TAF:

METAR-TAF

Lufthavne :

Duluth, Minnesota, USA

Breddekreds: 46-50-34N, længdekreds: 092-13-34W, højde: 435 m

Aktuelle vejr

Denne rapport blev lavet for 38 minutter siden, kl. 09:55 UTC
Vind 5 kt fra nordnordvest
Temperatur 0°C
Fugtighed 86%
Tryk 1019 hPa
Sigt: 16.1 km
skyfri

METAR: KDLH 230955Z 33005KT 10SM CLR 00/M02 A3010 RMK AO2 SLP208 T00001017

Tid: 05:33 (10:33 UTC)

Vejrudsigter

Denne rapport blev lavet for 4 timer og 57 minutter siden, kl. 05:36 UTC
Foreløbig gælder fra 23 på 06 UTC til 24 på 06 UTC
Vind 4 kt fra varierende retninger
Sigt: 10 km
Nogle få skyer i en højde af 25000 ft
Fra 23 på 1900 UTC
Vind 10 kt fra sydvest
Sigt: 10 km
Spredte skyer i en højde af 5000 ft
Spredte skyer i en højde af 20000 ft
Fra 24 på 0300 UTC
Vind 5 kt fra syd
Sigt: 10 km
Brudte skyer i en højde af 15000 ft

TAF: KDLH 230536Z 2306/2406 VRB04KT P6SM FEW250 FM231900 22010KT P6SM SCT050 SCT200 FM240300 19005KT P6SM BKN150

Vejrobservationer og prognoser fra mere end 4000 lufthavne (METAR og TAF).

De gule og røde prikker repræsenterer de meteorologiske stationer.

Flyt musen over at se navnet på stationen.

Så klik over at se vejr observationer og prognoser.

At skifte det kort: Klik på de grønne knapper med et sort kors for at zoome ind; på den grønne knap med en bindestreg for at zoome ud; eller på de grønne pile for tilstødende kort.


METAR-TAF: